To NAV CANADA Home Page Login to a new session Search on AWWS site Feedback and Comments Disclaimer Vers la page française équivalente Tips FAQ What's new on the site To the Forecasts and Observations / NOTAM section To "File a Flight Plan" website Publications and other links Update of the User's profile FIC Telephone Numbers My Weather Data Folder Route Weather Data Regional Weather Data Local Weather Data To the Forecasts and Observations / NOTAM section
Request Generated 04/18/2014 at 13:36:31 UTC . Weather information available at that time is displayed.

METAR/TAF

AUPALUK/QC    

METAR CYLA 181300Z 29012KT 15SM FEW018 FEW220 M14/M17 A3008 RMK SC1CI0 SLP189=
METAR CYLA 181200Z 28012KT 15SM FEW020 FEW220 M13/M16 A3005 RMK SC2CI0 SNW CVR/MUCH LSE SLP180=

CYLA - No TAF is issued for this station

Your time UTC time
Weather data provided by Environment Canada and NAV CANADA